orsys.fr alexa rank chart, orsys.fr alexa rank daily changes

orsys.fr alexa rank chart, orsys.fr alexa rank daily changes

orsys.fr
Actual rank:
218 147

RANK HISTORY

Date Rank Diff
2017/11/18 218 147 +9 917
2017/11/17 208 230 -11 807
2017/11/16 220 037 -3 229
2017/11/15 223 266 -12 063
2017/11/14 235 329 +10 161
2017/11/13 225 168 +5
2017/11/12 225 163 +4 967
2017/11/11 220 196 -62
2017/11/10 220 258 -426
2017/11/09 220 684 -2 484
2017/11/08 223 168 +6 343
2017/11/07 216 825 +13 315
2017/11/06 203 510 -2 740
2017/11/05 206 250 +5 246
2017/11/04 201 004 +1 131
2017/11/03 199 873 +4 947
2017/11/02 194 926 -4 618
2017/11/01 199 544 -4 847
2017/10/31 204 391 +126
2017/10/30 204 265 +1 826
2017/10/29 202 439 -6 935
2017/10/28 209 374 +833
2017/10/27 208 541 -1 559
2017/10/26 210 100 -5 493
2017/10/25 215 593 -731
2017/10/24 216 324 +822
2017/10/23 215 502 -702
2017/10/22 216 204 +13 737
2017/10/21 202 467 +2 605
2017/10/20 199 862 -7 249
2017/10/19 207 111 -1 334
2017/10/18 208 445 -11 908
2017/10/17 220 353 +3 134
2017/10/16 217 219 +6 972
2017/10/14 210 247 +176
2017/10/13 210 071 +1 067
2017/10/12 209 004 -6 944
2017/10/11 215 948 -3 564
2017/10/10 219 512 +2 221
2017/10/09 217 291 +13 051
2017/10/08 204 240 -3 272
2017/10/07 207 512 -8 469
2017/10/06 215 981 +7 257
2017/10/05 208 724 +1 305
2017/10/04 207 419 -6 875
2017/10/03 214 294 +2 560
2017/10/02 211 734 +8 669
2017/10/01 203 065 +30
2017/09/30 203 035 +7 343
2017/09/29 195 692 +1 319
2017/09/28 194 373 -710
2017/09/27 195 083 -965
2017/09/26 196 048 +6 306
2017/09/25 189 742 +8 437
2017/09/24 181 305 +4 827
2017/09/23 176 478 -7 850
2017/09/22 184 328 -1 905
2017/09/20 186 233 +7 931
2017/09/19 178 302

WIDGET FOR YOUR SITE

DOMAINS WITH THE NEAREST RANK

Domain Rank
sexyteenslive.com 218 142
piv.one 218 143
environmentalleader.com 218 144
westsidewholesale.com 218 145
basilica.ro 218 146
orsys.fr 218 147
sonoticiaboa.com.br 218 148
rochester.k12.mn.us 218 149
tonpetitlook.com 218 150
aginekolog.ru 218 151
resizemypicture.com 218 152

DOMAINS WITH THE NEAREST RANK BY TLD .fr

Domain Rank
meatspin.fr 217 985
cashbackreduction.fr 218 019
agrocampus-ouest.fr 218 055
coqcorico.fr 218 064
wecook.fr 218 078
orsys.fr 218 147
people-addict.fr 218 154
sportsregions.fr 218 219
antennereunion.fr 218 230
cgb.fr 218 311
temporis-franchise.fr 218 548